sensor_id;sensor_type;location;lat;lon;timestamp;P1;durP1;ratioP1;P2;durP2;ratioP2
40599;SDS011;26309;50.924;4.754;2023-04-12T00:01:48;3.93;;;1.73;;
40599;SDS011;26309;50.924;4.754;2023-04-12T00:04:14;6.10;;;2.10;;
40599;SDS011;26309;50.924;4.754;2023-04-12T00:06:43;4.37;;;2.03;;
40599;SDS011;26309;50.924;4.754;2023-04-12T00:09:12;7.13;;;1.80;;
40599;SDS011;26309;50.924;4.754;2023-04-12T00:11:42;4.70;;;1.93;;
40599;SDS011;26309;50.924;4.754;2023-04-12T00:14:11;4.87;;;1.67;;
40599;SDS011;26309;50.924;4.754;2023-04-12T00:16:37;5.40;;;1.73;;
40599;SDS011;26309;50.924;4.754;2023-04-12T00:19:03;5.07;;;1.60;;
40599;SDS011;26309;50.924;4.754;2023-04-12T00:21:30;3.67;;;1.73;;
40599;SDS011;26309;50.924;4.754;2023-04-12T00:23:56;5.30;;;1.80;;
40599;SDS011;26309;50.924;4.754;2023-04-12T00:26:22;7.13;;;1.87;;
40599;SDS011;26309;50.924;4.754;2023-04-12T00:28:51;3.33;;;1.80;;
40599;SDS011;26309;50.924;4.754;2023-04-12T00:31:17;5.17;;;1.87;;
40599;SDS011;26309;50.924;4.754;2023-04-12T00:33:43;5.00;;;2.00;;
40599;SDS011;26309;50.924;4.754;2023-04-12T00:36:09;5.97;;;1.83;;
40599;SDS011;26309;50.924;4.754;2023-04-12T00:38:35;8.77;;;1.90;;
40599;SDS011;26309;50.924;4.754;2023-04-12T00:41:01;3.00;;;1.63;;
40599;SDS011;26309;50.924;4.754;2023-04-12T00:43:27;5.10;;;1.93;;
40599;SDS011;26309;50.924;4.754;2023-04-12T00:45:54;5.13;;;2.03;;
40599;SDS011;26309;50.924;4.754;2023-04-12T00:48:22;3.67;;;1.77;;
40599;SDS011;26309;50.924;4.754;2023-04-12T00:50:51;6.20;;;2.10;;
40599;SDS011;26309;50.924;4.754;2023-04-12T00:53:21;2.40;;;1.50;;
40599;SDS011;26309;50.924;4.754;2023-04-12T00:55:48;3.57;;;1.80;;
40599;SDS011;26309;50.924;4.754;2023-04-12T00:58:15;4.83;;;1.70;;
40599;SDS011;26309;50.924;4.754;2023-04-12T01:00:41;4.00;;;1.80;;
40599;SDS011;26309;50.924;4.754;2023-04-12T01:03:20;4.80;;;1.50;;
40599;SDS011;26309;50.924;4.754;2023-04-12T01:08:33;2.50;;;1.33;;
40599;SDS011;26309;50.924;4.754;2023-04-12T01:13:44;3.60;;;1.70;;
40599;SDS011;26309;50.924;4.754;2023-04-12T01:19:01;3.97;;;1.80;;
40599;SDS011;26309;50.924;4.754;2023-04-12T01:30:28;3.60;;;1.40;;
40599;SDS011;26309;50.924;4.754;2023-04-12T01:32:56;3.70;;;1.60;;
40599;SDS011;26309;50.924;4.754;2023-04-12T01:35:28;4.30;;;1.83;;
40599;SDS011;26309;50.924;4.754;2023-04-12T01:37:57;4.40;;;1.70;;
40599;SDS011;26309;50.924;4.754;2023-04-12T01:40:26;4.13;;;1.40;;
40599;SDS011;26309;50.924;4.754;2023-04-12T01:43:06;4.13;;;1.57;;
40599;SDS011;26309;50.924;4.754;2023-04-12T01:45:34;2.97;;;1.40;;
40599;SDS011;26309;50.924;4.754;2023-04-12T01:48:00;3.03;;;1.40;;
40599;SDS011;26309;50.924;4.754;2023-04-12T01:50:50;5.70;;;1.60;;
40599;SDS011;26309;50.924;4.754;2023-04-12T01:56:14;4.37;;;1.60;;
40599;SDS011;26309;50.924;4.754;2023-04-12T01:58:42;3.27;;;1.40;;
40599;SDS011;26309;50.924;4.754;2023-04-12T02:01:13;3.67;;;1.67;;
40599;SDS011;26309;50.924;4.754;2023-04-12T02:03:41;3.27;;;1.50;;
40599;SDS011;26309;50.924;4.754;2023-04-12T02:06:07;6.70;;;1.70;;
40599;SDS011;26309;50.924;4.754;2023-04-12T02:08:34;3.53;;;1.57;;
40599;SDS011;26309;50.924;4.754;2023-04-12T02:11:00;3.33;;;1.70;;
40599;SDS011;26309;50.924;4.754;2023-04-12T02:13:32;4.33;;;1.57;;
40599;SDS011;26309;50.924;4.754;2023-04-12T02:15:57;3.03;;;1.50;;
40599;SDS011;26309;50.924;4.754;2023-04-12T02:18:23;4.40;;;1.50;;
40599;SDS011;26309;50.924;4.754;2023-04-12T02:20:49;7.70;;;1.80;;
40599;SDS011;26309;50.924;4.754;2023-04-12T02:23:15;2.37;;;1.50;;
40599;SDS011;26309;50.924;4.754;2023-04-12T02:25:41;2.23;;;1.43;;
40599;SDS011;26309;50.924;4.754;2023-04-12T02:28:08;2.80;;;1.40;;
40599;SDS011;26309;50.924;4.754;2023-04-12T02:30:33;2.03;;;1.40;;
40599;SDS011;26309;50.924;4.754;2023-04-12T02:32:59;2.47;;;1.43;;
40599;SDS011;26309;50.924;4.754;2023-04-12T02:35:29;2.90;;;1.40;;
40599;SDS011;26309;50.924;4.754;2023-04-12T02:37:57;3.10;;;1.57;;
40599;SDS011;26309;50.924;4.754;2023-04-12T02:40:23;2.43;;;1.40;;
40599;SDS011;26309;50.924;4.754;2023-04-12T02:42:49;1.53;;;1.23;;
40599;SDS011;26309;50.924;4.754;2023-04-12T02:45:15;2.50;;;1.43;;
40599;SDS011;26309;50.924;4.754;2023-04-12T02:47:41;2.17;;;1.20;;
40599;SDS011;26309;50.924;4.754;2023-04-12T02:50:07;2.73;;;1.43;;
40599;SDS011;26309;50.924;4.754;2023-04-12T02:52:33;7.67;;;1.67;;
40599;SDS011;26309;50.924;4.754;2023-04-12T02:54:59;5.13;;;1.70;;
40599;SDS011;26309;50.924;4.754;2023-04-12T02:57:25;2.00;;;1.53;;
40599;SDS011;26309;50.924;4.754;2023-04-12T02:59:51;2.47;;;1.47;;
40599;SDS011;26309;50.924;4.754;2023-04-12T03:02:20;3.43;;;1.50;;
40599;SDS011;26309;50.924;4.754;2023-04-12T03:04:46;3.23;;;1.50;;
40599;SDS011;26309;50.924;4.754;2023-04-12T03:07:18;2.00;;;1.50;;
40599;SDS011;26309;50.924;4.754;2023-04-12T03:09:48;3.10;;;1.53;;
40599;SDS011;26309;50.924;4.754;2023-04-12T03:12:15;3.57;;;1.63;;
40599;SDS011;26309;50.924;4.754;2023-04-12T03:14:41;3.17;;;1.63;;
40599;SDS011;26309;50.924;4.754;2023-04-12T03:17:07;3.73;;;1.50;;
40599;SDS011;26309;50.924;4.754;2023-04-12T03:19:33;5.97;;;1.90;;
40599;SDS011;26309;50.924;4.754;2023-04-12T03:22:01;4.77;;;1.50;;
40599;SDS011;26309;50.924;4.754;2023-04-12T03:24:28;3.77;;;1.70;;
40599;SDS011;26309;50.924;4.754;2023-04-12T03:27:00;2.70;;;1.63;;
40599;SDS011;26309;50.924;4.754;2023-04-12T03:29:26;1.73;;;1.57;;
40599;SDS011;26309;50.924;4.754;2023-04-12T03:31:53;2.50;;;1.70;;
40599;SDS011;26309;50.924;4.754;2023-04-12T03:34:20;3.30;;;1.50;;
40599;SDS011;26309;50.924;4.754;2023-04-12T03:36:46;4.97;;;1.87;;
40599;SDS011;26309;50.924;4.754;2023-04-12T03:39:11;4.90;;;1.50;;
40599;SDS011;26309;50.924;4.754;2023-04-12T03:41:37;3.40;;;1.70;;
40599;SDS011;26309;50.924;4.754;2023-04-12T03:44:03;4.50;;;1.47;;
40599;SDS011;26309;50.924;4.754;2023-04-12T03:46:29;2.70;;;1.67;;
40599;SDS011;26309;50.924;4.754;2023-04-12T03:48:55;3.67;;;1.50;;
40599;SDS011;26309;50.924;4.754;2023-04-12T03:51:21;6.67;;;1.83;;
40599;SDS011;26309;50.924;4.754;2023-04-12T03:53:51;4.50;;;1.60;;
40599;SDS011;26309;50.924;4.754;2023-04-12T03:56:21;3.30;;;1.90;;
40599;SDS011;26309;50.924;4.754;2023-04-12T03:58:47;1.63;;;1.40;;
40599;SDS011;26309;50.924;4.754;2023-04-12T04:01:13;2.40;;;1.47;;
40599;SDS011;26309;50.924;4.754;2023-04-12T04:03:42;2.50;;;1.43;;
40599;SDS011;26309;50.924;4.754;2023-04-12T04:06:09;3.07;;;1.50;;
40599;SDS011;26309;50.924;4.754;2023-04-12T04:08:36;4.07;;;1.83;;
40599;SDS011;26309;50.924;4.754;2023-04-12T04:11:02;4.40;;;1.37;;
40599;SDS011;26309;50.924;4.754;2023-04-12T04:13:29;3.33;;;1.30;;
40599;SDS011;26309;50.924;4.754;2023-04-12T04:15:57;4.60;;;1.23;;
40599;SDS011;26309;50.924;4.754;2023-04-12T04:18:27;2.17;;;1.40;;
40599;SDS011;26309;50.924;4.754;2023-04-12T04:20:53;2.83;;;1.60;;
40599;SDS011;26309;50.924;4.754;2023-04-12T04:23:19;2.83;;;1.20;;
40599;SDS011;26309;50.924;4.754;2023-04-12T04:25:46;5.33;;;1.37;;
40599;SDS011;26309;50.924;4.754;2023-04-12T04:28:12;2.70;;;1.40;;
40599;SDS011;26309;50.924;4.754;2023-04-12T04:30:40;2.67;;;1.50;;
40599;SDS011;26309;50.924;4.754;2023-04-12T04:33:10;2.97;;;1.50;;
40599;SDS011;26309;50.924;4.754;2023-04-12T04:35:39;2.90;;;1.30;;
40599;SDS011;26309;50.924;4.754;2023-04-12T04:38:06;3.53;;;1.30;;
40599;SDS011;26309;50.924;4.754;2023-04-12T04:40:35;4.50;;;1.27;;
40599;SDS011;26309;50.924;4.754;2023-04-12T04:43:02;4.93;;;1.63;;
40599;SDS011;26309;50.924;4.754;2023-04-12T04:45:28;1.80;;;1.50;;
40599;SDS011;26309;50.924;4.754;2023-04-12T04:47:54;1.27;;;1.10;;
40599;SDS011;26309;50.924;4.754;2023-04-12T04:50:21;2.47;;;1.30;;
40599;SDS011;26309;50.924;4.754;2023-04-12T04:52:48;3.90;;;1.30;;
40599;SDS011;26309;50.924;4.754;2023-04-12T04:55:20;1.77;;;1.20;;
40599;SDS011;26309;50.924;4.754;2023-04-12T04:57:46;1.80;;;1.40;;
40599;SDS011;26309;50.924;4.754;2023-04-12T05:00:12;1.87;;;1.43;;
40599;SDS011;26309;50.924;4.754;2023-04-12T05:02:38;2.00;;;1.37;;
40599;SDS011;26309;50.924;4.754;2023-04-12T05:05:09;2.73;;;1.30;;
40599;SDS011;26309;50.924;4.754;2023-04-12T05:07:40;2.03;;;1.27;;
40599;SDS011;26309;50.924;4.754;2023-04-12T05:10:08;3.20;;;1.10;;
40599;SDS011;26309;50.924;4.754;2023-04-12T05:12:35;1.30;;;1.20;;
40599;SDS011;26309;50.924;4.754;2023-04-12T05:15:02;1.93;;;1.30;;
40599;SDS011;26309;50.924;4.754;2023-04-12T05:17:28;1.40;;;1.20;;
40599;SDS011;26309;50.924;4.754;2023-04-12T05:19:54;1.60;;;1.23;;
40599;SDS011;26309;50.924;4.754;2023-04-12T05:22:20;3.97;;;1.43;;
40599;SDS011;26309;50.924;4.754;2023-04-12T05:24:47;2.87;;;1.30;;
40599;SDS011;26309;50.924;4.754;2023-04-12T05:27:13;1.90;;;1.13;;
40599;SDS011;26309;50.924;4.754;2023-04-12T05:29:43;1.80;;;1.40;;
40599;SDS011;26309;50.924;4.754;2023-04-12T05:32:09;2.17;;;1.20;;
40599;SDS011;26309;50.924;4.754;2023-04-12T05:34:35;2.13;;;1.20;;
40599;SDS011;26309;50.924;4.754;2023-04-12T05:37:04;1.83;;;1.30;;
40599;SDS011;26309;50.924;4.754;2023-04-12T05:39:31;1.20;;;1.10;;
40599;SDS011;26309;50.924;4.754;2023-04-12T05:41:57;2.23;;;1.30;;
40599;SDS011;26309;50.924;4.754;2023-04-12T05:44:23;1.40;;;1.30;;
40599;SDS011;26309;50.924;4.754;2023-04-12T05:46:49;2.87;;;1.60;;
40599;SDS011;26309;50.924;4.754;2023-04-12T05:49:15;3.83;;;1.40;;
40599;SDS011;26309;50.924;4.754;2023-04-12T05:51:41;1.73;;;1.40;;
40599;SDS011;26309;50.924;4.754;2023-04-12T05:54:06;1.60;;;1.50;;
40599;SDS011;26309;50.924;4.754;2023-04-12T05:56:33;1.97;;;1.80;;
40599;SDS011;26309;50.924;4.754;2023-04-12T05:58:58;5.47;;;1.80;;
40599;SDS011;26309;50.924;4.754;2023-04-12T06:01:26;3.00;;;1.90;;
40599;SDS011;26309;50.924;4.754;2023-04-12T06:03:59;5.47;;;1.90;;
40599;SDS011;26309;50.924;4.754;2023-04-12T06:06:26;4.37;;;1.60;;
40599;SDS011;26309;50.924;4.754;2023-04-12T06:08:54;3.87;;;1.53;;
40599;SDS011;26309;50.924;4.754;2023-04-12T06:11:22;9.47;;;2.20;;
40599;SDS011;26309;50.924;4.754;2023-04-12T06:13:48;3.90;;;2.00;;
40599;SDS011;26309;50.924;4.754;2023-04-12T06:16:14;7.18;;;1.83;;
40599;SDS011;26309;50.924;4.754;2023-04-12T06:18:40;3.42;;;1.60;;
40599;SDS011;26309;50.924;4.754;2023-04-12T06:21:06;4.35;;;1.88;;
40599;SDS011;26309;50.924;4.754;2023-04-12T06:23:32;3.70;;;2.00;;
40599;SDS011;26309;50.924;4.754;2023-04-12T06:25:58;5.22;;;1.83;;
40599;SDS011;26309;50.924;4.754;2023-04-12T06:28:23;5.82;;;1.58;;
40599;SDS011;26309;50.924;4.754;2023-04-12T06:30:49;9.50;;;1.80;;
40599;SDS011;26309;50.924;4.754;2023-04-12T06:33:15;3.30;;;1.60;;
40599;SDS011;26309;50.924;4.754;2023-04-12T06:35:41;4.40;;;1.95;;
40599;SDS011;26309;50.924;4.754;2023-04-12T06:38:07;2.95;;;1.73;;
40599;SDS011;26309;50.924;4.754;2023-04-12T06:40:32;6.80;;;2.33;;
40599;SDS011;26309;50.924;4.754;2023-04-12T06:42:58;6.32;;;1.83;;
40599;SDS011;26309;50.924;4.754;2023-04-12T06:45:24;10.25;;;2.40;;
40599;SDS011;26309;50.924;4.754;2023-04-12T06:47:50;6.33;;;2.27;;
40599;SDS011;26309;50.924;4.754;2023-04-12T06:50:16;8.18;;;2.05;;
40599;SDS011;26309;50.924;4.754;2023-04-12T06:52:44;8.13;;;2.20;;
40599;SDS011;26309;50.924;4.754;2023-04-12T06:55:17;6.75;;;1.90;;
40599;SDS011;26309;50.924;4.754;2023-04-12T06:57:43;6.30;;;2.13;;
40599;SDS011;26309;50.924;4.754;2023-04-12T07:00:10;4.75;;;2.15;;
40599;SDS011;26309;50.924;4.754;2023-04-12T07:02:43;4.03;;;2.03;;
40599;SDS011;26309;50.924;4.754;2023-04-12T07:05:15;6.73;;;2.27;;
40599;SDS011;26309;50.924;4.754;2023-04-12T07:07:41;7.40;;;2.23;;
40599;SDS011;26309;50.924;4.754;2023-04-12T07:10:09;7.83;;;2.50;;
40599;SDS011;26309;50.924;4.754;2023-04-12T07:12:35;7.30;;;2.37;;
40599;SDS011;26309;50.924;4.754;2023-04-12T07:15:01;6.40;;;2.00;;
40599;SDS011;26309;50.924;4.754;2023-04-12T07:17:27;6.93;;;2.20;;
40599;SDS011;26309;50.924;4.754;2023-04-12T07:19:53;6.70;;;2.43;;
40599;SDS011;26309;50.924;4.754;2023-04-12T07:22:22;6.90;;;2.35;;
40599;SDS011;26309;50.924;4.754;2023-04-12T07:24:49;9.05;;;2.78;;
40599;SDS011;26309;50.924;4.754;2023-04-12T07:27:15;7.97;;;2.50;;
40599;SDS011;26309;50.924;4.754;2023-04-12T07:29:41;8.10;;;2.60;;
40599;SDS011;26309;50.924;4.754;2023-04-12T07:32:07;9.05;;;2.70;;
40599;SDS011;26309;50.924;4.754;2023-04-12T07:34:35;11.70;;;2.63;;
40599;SDS011;26309;50.924;4.754;2023-04-12T07:37:01;9.00;;;2.67;;
40599;SDS011;26309;50.924;4.754;2023-04-12T07:39:27;8.07;;;2.50;;
40599;SDS011;26309;50.924;4.754;2023-04-12T07:41:54;7.93;;;2.53;;
40599;SDS011;26309;50.924;4.754;2023-04-12T07:44:20;10.05;;;2.30;;
40599;SDS011;26309;50.924;4.754;2023-04-12T07:46:46;9.82;;;2.40;;
40599;SDS011;26309;50.924;4.754;2023-04-12T07:49:13;11.48;;;2.63;;
40599;SDS011;26309;50.924;4.754;2023-04-12T07:51:39;8.45;;;2.50;;
40599;SDS011;26309;50.924;4.754;2023-04-12T07:54:06;6.65;;;2.35;;
40599;SDS011;26309;50.924;4.754;2023-04-12T07:56:33;9.50;;;2.60;;
40599;SDS011;26309;50.924;4.754;2023-04-12T07:58:59;11.23;;;2.22;;
40599;SDS011;26309;50.924;4.754;2023-04-12T08:01:25;7.88;;;2.08;;
40599;SDS011;26309;50.924;4.754;2023-04-12T08:03:51;7.90;;;2.03;;
40599;SDS011;26309;50.924;4.754;2023-04-12T08:06:17;9.20;;;2.05;;
40599;SDS011;26309;50.924;4.754;2023-04-12T08:08:43;6.70;;;2.05;;
40599;SDS011;26309;50.924;4.754;2023-04-12T08:11:09;8.40;;;2.20;;
40599;SDS011;26309;50.924;4.754;2023-04-12T08:13:35;8.63;;;1.90;;
40599;SDS011;26309;50.924;4.754;2023-04-12T08:16:02;8.32;;;2.30;;
40599;SDS011;26309;50.924;4.754;2023-04-12T08:18:28;8.48;;;1.98;;
40599;SDS011;26309;50.924;4.754;2023-04-12T08:20:57;7.03;;;2.30;;
40599;SDS011;26309;50.924;4.754;2023-04-12T08:23:25;7.95;;;2.10;;
40599;SDS011;26309;50.924;4.754;2023-04-12T08:25:51;13.45;;;2.42;;
40599;SDS011;26309;50.924;4.754;2023-04-12T08:28:26;11.15;;;2.13;;
40599;SDS011;26309;50.924;4.754;2023-04-12T08:30:52;12.50;;;2.20;;
40599;SDS011;26309;50.924;4.754;2023-04-12T08:33:18;8.77;;;2.28;;
40599;SDS011;26309;50.924;4.754;2023-04-12T08:35:44;11.13;;;2.58;;
40599;SDS011;26309;50.924;4.754;2023-04-12T08:38:11;13.48;;;3.15;;
40599;SDS011;26309;50.924;4.754;2023-04-12T08:40:37;12.32;;;2.40;;
40599;SDS011;26309;50.924;4.754;2023-04-12T08:43:06;12.45;;;2.65;;
40599;SDS011;26309;50.924;4.754;2023-04-12T08:45:35;13.65;;;3.20;;
40599;SDS011;26309;50.924;4.754;2023-04-12T08:48:03;10.73;;;2.47;;
40599;SDS011;26309;50.924;4.754;2023-04-12T08:50:30;10.73;;;2.30;;
40599;SDS011;26309;50.924;4.754;2023-04-12T08:52:59;8.98;;;2.00;;
40599;SDS011;26309;50.924;4.754;2023-04-12T08:55:25;14.45;;;2.58;;
40599;SDS011;26309;50.924;4.754;2023-04-12T08:57:54;12.40;;;2.55;;
40599;SDS011;26309;50.924;4.754;2023-04-12T09:00:21;13.90;;;2.75;;
40599;SDS011;26309;50.924;4.754;2023-04-12T09:02:49;10.25;;;2.35;;
40599;SDS011;26309;50.924;4.754;2023-04-12T09:05:16;14.55;;;2.67;;
40599;SDS011;26309;50.924;4.754;2023-04-12T09:07:41;9.18;;;2.63;;
40599;SDS011;26309;50.924;4.754;2023-04-12T09:10:07;10.93;;;2.88;;
40599;SDS011;26309;50.924;4.754;2023-04-12T09:12:33;13.45;;;3.05;;
40599;SDS011;26309;50.924;4.754;2023-04-12T09:15:10;21.25;;;3.28;;
40599;SDS011;26309;50.924;4.754;2023-04-12T09:17:38;14.30;;;2.78;;
40599;SDS011;26309;50.924;4.754;2023-04-12T09:22:43;17.90;;;3.30;;
40599;SDS011;26309;50.924;4.754;2023-04-12T09:25:13;13.77;;;3.00;;
40599;SDS011;26309;50.924;4.754;2023-04-12T09:27:50;15.95;;;2.95;;
40599;SDS011;26309;50.924;4.754;2023-04-12T09:30:19;13.55;;;3.20;;
40599;SDS011;26309;50.924;4.754;2023-04-12T09:32:45;17.08;;;3.35;;
40599;SDS011;26309;50.924;4.754;2023-04-12T09:35:14;11.95;;;2.60;;
40599;SDS011;26309;50.924;4.754;2023-04-12T09:37:40;17.33;;;3.33;;
40599;SDS011;26309;50.924;4.754;2023-04-12T09:40:07;16.17;;;3.50;;
40599;SDS011;26309;50.924;4.754;2023-04-12T09:42:55;10.80;;;2.88;;
40599;SDS011;26309;50.924;4.754;2023-04-12T09:45:23;17.75;;;3.10;;
40599;SDS011;26309;50.924;4.754;2023-04-12T09:47:50;15.05;;;2.78;;
40599;SDS011;26309;50.924;4.754;2023-04-12T09:50:22;16.02;;;2.95;;
40599;SDS011;26309;50.924;4.754;2023-04-12T09:52:49;17.80;;;3.22;;
40599;SDS011;26309;50.924;4.754;2023-04-12T09:55:16;17.00;;;3.17;;
40599;SDS011;26309;50.924;4.754;2023-04-12T09:57:44;13.77;;;3.30;;
40599;SDS011;26309;50.924;4.754;2023-04-12T10:00:11;21.55;;;3.40;;
40599;SDS011;26309;50.924;4.754;2023-04-12T10:02:41;16.52;;;3.60;;
40599;SDS011;26309;50.924;4.754;2023-04-12T10:05:09;17.05;;;3.05;;
40599;SDS011;26309;50.924;4.754;2023-04-12T10:07:40;10.95;;;2.90;;
40599;SDS011;26309;50.924;4.754;2023-04-12T10:10:07;10.52;;;2.83;;
40599;SDS011;26309;50.924;4.754;2023-04-12T10:12:36;13.93;;;2.72;;
40599;SDS011;26309;50.924;4.754;2023-04-12T10:15:07;11.48;;;2.78;;
40599;SDS011;26309;50.924;4.754;2023-04-12T10:17:45;9.38;;;2.63;;
40599;SDS011;26309;50.924;4.754;2023-04-12T10:20:18;12.43;;;2.85;;
40599;SDS011;26309;50.924;4.754;2023-04-12T10:25:23;16.70;;;2.80;;
40599;SDS011;26309;50.924;4.754;2023-04-12T10:27:51;10.43;;;3.25;;
40599;SDS011;26309;50.924;4.754;2023-04-12T10:30:18;12.70;;;2.70;;
40599;SDS011;26309;50.924;4.754;2023-04-12T10:38:13;12.73;;;2.92;;
40599;SDS011;26309;50.924;4.754;2023-04-12T10:41:25;13.80;;;2.70;;
40599;SDS011;26309;50.924;4.754;2023-04-12T10:43:35;13.10;;;3.00;;
40599;SDS011;26309;50.924;4.754;2023-04-12T10:46:02;13.73;;;2.75;;
40599;SDS011;26309;50.924;4.754;2023-04-12T10:48:35;15.45;;;2.85;;
40599;SDS011;26309;50.924;4.754;2023-04-12T10:53:51;14.35;;;3.03;;
40599;SDS011;26309;50.924;4.754;2023-04-12T10:59:05;16.33;;;3.17;;
40599;SDS011;26309;50.924;4.754;2023-04-12T11:01:32;10.93;;;2.65;;
40599;SDS011;26309;50.924;4.754;2023-04-12T11:09:21;7.50;;;2.20;;
40599;SDS011;26309;50.924;4.754;2023-04-12T11:11:47;10.52;;;2.03;;
40599;SDS011;26309;50.924;4.754;2023-04-12T11:14:14;6.78;;;2.22;;
40599;SDS011;26309;50.924;4.754;2023-04-12T11:19:38;6.03;;;1.95;;
40599;SDS011;26309;50.924;4.754;2023-04-12T11:22:21;8.02;;;2.58;;
40599;SDS011;26309;50.924;4.754;2023-04-12T11:24:56;11.18;;;2.40;;
40599;SDS011;26309;50.924;4.754;2023-04-12T11:27:24;8.27;;;2.35;;
40599;SDS011;26309;50.924;4.754;2023-04-12T11:29:51;9.85;;;2.60;;
40599;SDS011;26309;50.924;4.754;2023-04-12T11:32:22;14.10;;;3.38;;
40599;SDS011;26309;50.924;4.754;2023-04-12T11:34:53;10.93;;;2.80;;
40599;SDS011;26309;50.924;4.754;2023-04-12T11:37:21;15.05;;;3.13;;
40599;SDS011;26309;50.924;4.754;2023-04-12T11:39:49;15.10;;;3.25;;
40599;SDS011;26309;50.924;4.754;2023-04-12T11:42:18;15.27;;;3.28;;
40599;SDS011;26309;50.924;4.754;2023-04-12T11:44:45;22.85;;;3.67;;
40599;SDS011;26309;50.924;4.754;2023-04-12T11:47:16;9.60;;;2.58;;
40599;SDS011;26309;50.924;4.754;2023-04-12T11:49:44;14.13;;;3.45;;
40599;SDS011;26309;50.924;4.754;2023-04-12T11:52:15;9.38;;;2.58;;
40599;SDS011;26309;50.924;4.754;2023-04-12T11:54:50;12.52;;;2.60;;
40599;SDS011;26309;50.924;4.754;2023-04-12T11:57:20;12.65;;;2.97;;
40599;SDS011;26309;50.924;4.754;2023-04-12T11:59:47;14.27;;;2.80;;
40599;SDS011;26309;50.924;4.754;2023-04-12T12:02:16;13.77;;;2.67;;
40599;SDS011;26309;50.924;4.754;2023-04-12T12:04:45;10.23;;;2.55;;
40599;SDS011;26309;50.924;4.754;2023-04-12T12:07:13;10.55;;;2.58;;
40599;SDS011;26309;50.924;4.754;2023-04-12T12:09:42;15.15;;;2.90;;
40599;SDS011;26309;50.924;4.754;2023-04-12T12:12:09;13.05;;;2.88;;
40599;SDS011;26309;50.924;4.754;2023-04-12T12:14:36;10.57;;;2.92;;
40599;SDS011;26309;50.924;4.754;2023-04-12T12:17:06;7.68;;;2.10;;
40599;SDS011;26309;50.924;4.754;2023-04-12T12:19:37;6.35;;;2.08;;
40599;SDS011;26309;50.924;4.754;2023-04-12T12:22:10;8.30;;;1.83;;
40599;SDS011;26309;50.924;4.754;2023-04-12T12:24:49;5.47;;;2.05;;
40599;SDS011;26309;50.924;4.754;2023-04-12T12:27:23;9.03;;;2.27;;
40599;SDS011;26309;50.924;4.754;2023-04-12T12:29:58;7.77;;;1.77;;
40599;SDS011;26309;50.924;4.754;2023-04-12T12:32:32;4.00;;;1.50;;
40599;SDS011;26309;50.924;4.754;2023-04-12T12:35:01;4.43;;;1.33;;
40599;SDS011;26309;50.924;4.754;2023-04-12T12:37:33;5.60;;;1.20;;
40599;SDS011;26309;50.924;4.754;2023-04-12T12:42:26;1.00;;;0.90;;
40599;SDS011;26309;50.924;4.754;2023-04-12T12:44:52;5.70;;;1.17;;
40599;SDS011;26309;50.924;4.754;2023-04-12T12:47:18;2.73;;;1.20;;
40599;SDS011;26309;50.924;4.754;2023-04-12T12:49:43;4.30;;;1.30;;
40599;SDS011;26309;50.924;4.754;2023-04-12T12:52:09;4.37;;;1.20;;
40599;SDS011;26309;50.924;4.754;2023-04-12T12:54:35;3.72;;;1.30;;
40599;SDS011;26309;50.924;4.754;2023-04-12T12:57:01;7.40;;;1.55;;
40599;SDS011;26309;50.924;4.754;2023-04-12T12:59:27;4.50;;;1.40;;
40599;SDS011;26309;50.924;4.754;2023-04-12T13:01:53;4.82;;;1.83;;
40599;SDS011;26309;50.924;4.754;2023-04-12T13:04:19;2.43;;;1.40;;
40599;SDS011;26309;50.924;4.754;2023-04-12T13:06:45;8.75;;;1.63;;
40599;SDS011;26309;50.924;4.754;2023-04-12T13:09:10;2.30;;;1.48;;
40599;SDS011;26309;50.924;4.754;2023-04-12T13:11:36;7.25;;;1.55;;
40599;SDS011;26309;50.924;4.754;2023-04-12T13:14:02;5.82;;;1.42;;
40599;SDS011;26309;50.924;4.754;2023-04-12T13:16:28;5.20;;;1.33;;
40599;SDS011;26309;50.924;4.754;2023-04-12T13:18:54;2.28;;;1.33;;
40599;SDS011;26309;50.924;4.754;2023-04-12T13:21:20;2.30;;;1.10;;
40599;SDS011;26309;50.924;4.754;2023-04-12T13:23:46;5.72;;;1.30;;
40599;SDS011;26309;50.924;4.754;2023-04-12T13:26:11;4.35;;;1.35;;
40599;SDS011;26309;50.924;4.754;2023-04-12T13:28:37;2.85;;;1.20;;
40599;SDS011;26309;50.924;4.754;2023-04-12T13:31:03;3.45;;;1.27;;
40599;SDS011;26309;50.924;4.754;2023-04-12T13:33:30;6.35;;;1.30;;
40599;SDS011;26309;50.924;4.754;2023-04-12T13:35:55;2.90;;;1.17;;
40599;SDS011;26309;50.924;4.754;2023-04-12T13:38:21;3.40;;;1.45;;
40599;SDS011;26309;50.924;4.754;2023-04-12T13:40:47;4.00;;;1.38;;
40599;SDS011;26309;50.924;4.754;2023-04-12T13:43:13;3.95;;;1.27;;
40599;SDS011;26309;50.924;4.754;2023-04-12T13:45:39;7.38;;;1.40;;
40599;SDS011;26309;50.924;4.754;2023-04-12T13:48:05;2.28;;;1.30;;
40599;SDS011;26309;50.924;4.754;2023-04-12T13:50:31;4.15;;;1.48;;
40599;SDS011;26309;50.924;4.754;2023-04-12T13:52:57;2.85;;;1.02;;
40599;SDS011;26309;50.924;4.754;2023-04-12T13:55:23;2.47;;;1.13;;
40599;SDS011;26309;50.924;4.754;2023-04-12T13:57:49;3.55;;;1.02;;
40599;SDS011;26309;50.924;4.754;2023-04-12T14:00:15;1.98;;;1.00;;
40599;SDS011;26309;50.924;4.754;2023-04-12T14:02:41;2.65;;;1.13;;
40599;SDS011;26309;50.924;4.754;2023-04-12T14:05:07;5.00;;;1.38;;
40599;SDS011;26309;50.924;4.754;2023-04-12T14:07:33;3.10;;;1.10;;
40599;SDS011;26309;50.924;4.754;2023-04-12T14:09:59;2.90;;;1.25;;
40599;SDS011;26309;50.924;4.754;2023-04-12T14:12:25;3.40;;;1.38;;
40599;SDS011;26309;50.924;4.754;2023-04-12T14:14:50;4.55;;;1.45;;
40599;SDS011;26309;50.924;4.754;2023-04-12T14:17:16;6.63;;;1.20;;
40599;SDS011;26309;50.924;4.754;2023-04-12T14:19:42;3.90;;;1.17;;
40599;SDS011;26309;50.924;4.754;2023-04-12T14:22:08;6.03;;;1.40;;
40599;SDS011;26309;50.924;4.754;2023-04-12T14:24:33;1.57;;;1.00;;
40599;SDS011;26309;50.924;4.754;2023-04-12T14:27:00;2.83;;;1.17;;
40599;SDS011;26309;50.924;4.754;2023-04-12T14:29:28;2.03;;;1.10;;
40599;SDS011;26309;50.924;4.754;2023-04-12T14:31:54;2.70;;;1.27;;
40599;SDS011;26309;50.924;4.754;2023-04-12T14:34:19;4.07;;;1.47;;
40599;SDS011;26309;50.924;4.754;2023-04-12T14:36:45;3.17;;;1.53;;
40599;SDS011;26309;50.924;4.754;2023-04-12T14:39:11;2.30;;;1.20;;
40599;SDS011;26309;50.924;4.754;2023-04-12T14:41:37;3.85;;;1.20;;
40599;SDS011;26309;50.924;4.754;2023-04-12T14:44:04;1.73;;;1.20;;
40599;SDS011;26309;50.924;4.754;2023-04-12T14:46:30;2.38;;;1.08;;
40599;SDS011;26309;50.924;4.754;2023-04-12T14:48:56;3.40;;;1.00;;
40599;SDS011;26309;50.924;4.754;2023-04-12T14:51:25;2.03;;;1.13;;
40599;SDS011;26309;50.924;4.754;2023-04-12T14:53:52;2.53;;;1.00;;
40599;SDS011;26309;50.924;4.754;2023-04-12T14:56:21;2.67;;;1.10;;
40599;SDS011;26309;50.924;4.754;2023-04-12T14:58:49;1.35;;;0.80;;
40599;SDS011;26309;50.924;4.754;2023-04-12T15:01:18;1.13;;;0.85;;
40599;SDS011;26309;50.924;4.754;2023-04-12T15:03:44;1.02;;;0.82;;
40599;SDS011;26309;50.924;4.754;2023-04-12T15:06:11;1.05;;;0.70;;
40599;SDS011;26309;50.924;4.754;2023-04-12T15:08:38;2.50;;;1.05;;
40599;SDS011;26309;50.924;4.754;2023-04-12T15:11:07;2.90;;;1.00;;
40599;SDS011;26309;50.924;4.754;2023-04-12T15:13:35;3.08;;;0.88;;
40599;SDS011;26309;50.924;4.754;2023-04-12T15:16:05;4.38;;;1.13;;
40599;SDS011;26309;50.924;4.754;2023-04-12T15:18:37;3.08;;;1.00;;
40599;SDS011;26309;50.924;4.754;2023-04-12T15:21:06;3.25;;;1.20;;
40599;SDS011;26309;50.924;4.754;2023-04-12T15:23:33;4.97;;;1.48;;
40599;SDS011;26309;50.924;4.754;2023-04-12T15:26:00;4.70;;;1.25;;
40599;SDS011;26309;50.924;4.754;2023-04-12T15:28:28;3.30;;;0.85;;
40599;SDS011;26309;50.924;4.754;2023-04-12T15:30:54;4.00;;;1.20;;
40599;SDS011;26309;50.924;4.754;2023-04-12T15:33:20;4.47;;;1.30;;
40599;SDS011;26309;50.924;4.754;2023-04-12T15:35:49;5.20;;;1.30;;